Time;durP1;ratioP1;P1;durP2;ratioP2;P2;SDS_P1;SDS_P2;PMS_P1;PMS_P2;Temp;Humidity;BMP_temperature;BMP_pressure;BME280_temperature;BME280_humidity;BME280_pressure;Samples;Min_cycle;Max_cycle;Signal;HPM_P1;HPM_P2
2024/01/13 00:02:17;;;;;;;2.33;1.98;;;;;;;27.95;25.83;101247.34;7392947;19;20014;-59
2024/01/13 00:04:43;;;;;;;3.50;1.75;;;;;;;27.67;26.22;101235.91;7395420;19;20300;-59
2024/01/13 00:07:09;;;;;;;2.75;1.27;;;;;;;27.27;26.25;101234.59;7392371;19;20011;-59
2024/01/13 00:09:35;;;;;;;1.90;1.38;;;;;;;27.02;26.34;101234.22;7394094;19;20041;-59
2024/01/13 00:12:05;;;;;;;4.30;0.82;;;;;;;26.95;26.65;101227.09;7391096;19;20033;-59
2024/01/13 00:14:31;;;;;;;1.95;1.05;;;;;;;27.05;26.40;101224.50;7391309;19;20014;-59
2024/01/13 00:16:57;;;;;;;2.47;2.00;;;;;;;27.21;26.34;101219.69;7392856;19;20014;-59
2024/01/13 00:19:23;;;;;;;1.08;0.85;;;;;;;27.16;26.18;101227.09;7392913;19;20010;-59
2024/01/13 00:21:50;;;;;;;0.30;0.30;;;;;;;28.61;25.59;101223.81;7392113;19;20014;-59
2024/01/13 00:24:16;;;;;;;0.88;0.88;;;;;;;29.19;24.88;101224.47;7393286;19;20121;-59
2024/01/13 00:26:42;;;;;;;1.35;0.95;;;;;;;29.37;24.68;101216.81;7395912;19;20015;-59
2024/01/13 00:29:10;;;;;;;9.05;1.02;;;;;;;29.37;24.53;101213.19;7391817;19;20021;-59
2024/01/13 00:31:37;;;;;;;2.08;1.52;;;;;;;28.52;25.24;101214.38;7391591;19;20003;-59
2024/01/13 00:34:03;;;;;;;0.63;0.50;;;;;;;26.93;26.27;101214.69;7395064;19;20011;-59
2024/01/13 00:36:29;;;;;;;1.10;0.95;;;;;;;26.50;26.68;101214.41;7394423;19;20006;-59
2024/01/13 00:38:55;;;;;;;0.98;0.93;;;;;;;26.49;27.30;101218.56;7392190;19;20561;-59
2024/01/13 00:41:22;;;;;;;2.85;1.40;;;;;;;25.30;28.01;101209.28;7392060;19;20014;-59
2024/01/13 00:43:48;;;;;;;2.83;1.52;;;;;;;26.35;26.81;101209.28;7392000;19;20007;-59
2024/01/13 00:46:14;;;;;;;2.35;1.38;;;;;;;26.33;26.71;101209.81;7392840;19;20025;-59
2024/01/13 00:48:40;;;;;;;2.63;0.80;;;;;;;26.46;26.83;101213.97;7392192;19;20048;-59
2024/01/13 00:51:09;;;;;;;1.85;0.93;;;;;;;27.44;25.79;101206.38;7393083;19;20446;-54
2024/01/13 00:53:35;;;;;;;1.30;0.68;;;;;;;25.09;28.01;101194.09;7391748;19;20018;-55
2024/01/13 00:56:02;;;;;;;2.92;1.60;;;;;;;27.59;26.06;101186.44;7391336;19;20400;-54
2024/01/13 00:58:28;;;;;;;4.65;1.77;;;;;;;25.75;27.10;101197.06;7390380;19;20018;-55
2024/01/13 01:00:59;;;;;;;2.05;1.80;;;;;;;24.81;28.06;101191.72;7394940;19;20011;-55
2024/01/13 01:03:26;;;;;;;0.80;0.30;;;;;;;24.62;28.23;101187.34;7395154;19;20023;-54
2024/01/13 01:05:53;;;;;;;1.52;1.33;;;;;;;24.71;27.76;101196.25;7391716;19;20018;-54
2024/01/13 01:08:19;;;;;;;3.03;0.45;;;;;;;24.53;28.47;101184.91;7390226;19;20011;-55
2024/01/13 01:10:46;;;;;;;3.30;1.55;;;;;;;24.25;28.34;101179.63;7391103;19;20006;-54
2024/01/13 01:13:12;;;;;;;1.75;1.60;;;;;;;21.43;31.07;101184.69;7394748;19;20026;-54
2024/01/13 01:15:39;;;;;;;1.17;0.82;;;;;;;20.78;32.31;101179.31;7390642;19;20015;-55
2024/01/13 01:18:05;;;;;;;4.43;1.10;;;;;;;22.43;30.68;101168.78;7392111;19;20011;-54
2024/01/13 01:20:31;;;;;;;1.27;0.57;;;;;;;19.65;33.42;101177.97;7389378;19;20041;-54
2024/01/13 01:22:57;;;;;;;3.33;1.27;;;;;;;19.80;33.52;101166.47;7389625;19;20471;-54
2024/01/13 01:25:23;;;;;;;3.33;1.77;;;;;;;19.31;34.07;101164.91;7394514;19;20355;-54
2024/01/13 01:27:49;;;;;;;0.77;0.55;;;;;;;20.53;33.28;101162.56;7389412;19;20014;-54
2024/01/13 01:30:16;;;;;;;3.42;1.48;;;;;;;19.16;34.52;101170.72;7389412;19;20368;-54
2024/01/13 01:32:42;;;;;;;5.88;1.10;;;;;;;18.96;34.94;101162.34;7387248;19;20400;-54
2024/01/13 01:35:08;;;;;;;1.98;0.82;;;;;;;20.82;32.81;101154.34;7387193;19;20016;-54
2024/01/13 01:37:35;;;;;;;1.55;0.57;;;;;;;24.16;29.93;101148.69;7392857;19;20076;-54
2024/01/13 01:40:01;;;;;;;3.38;1.95;;;;;;;25.01;28.79;101150.47;7385458;19;20014;-54
2024/01/13 01:42:27;;;;;;;0.73;0.73;;;;;;;24.89;28.77;101146.25;7389261;19;20019;-54
2024/01/13 01:44:54;;;;;;;1.75;1.48;;;;;;;24.18;29.06;101140.38;7392065;19;20006;-54
2024/01/13 01:47:21;;;;;;;0.95;0.90;;;;;;;24.27;29.21;101148.53;7394387;19;20010;-54
2024/01/13 01:49:49;;;;;;;1.00;0.60;;;;;;;25.39;28.22;101142.47;7397332;19;20045;-54
2024/01/13 01:52:16;;;;;;;0.82;0.50;;;;;;;24.13;29.41;101140.47;7396205;19;20041;-55
2024/01/13 01:54:43;;;;;;;0.35;0.30;;;;;;;21.51;31.51;101134.66;7396008;19;20070;-55
2024/01/13 01:57:16;;;;;;;1.55;0.60;;;;;;;20.69;32.71;101134.25;7393335;19;20015;-54
2024/01/13 01:59:42;;;;;;;1.80;1.38;;;;;;;19.74;34.19;101128.91;7392188;19;20078;-54
2024/01/13 02:02:08;;;;;;;0.43;0.43;;;;;;;22.73;31.01;101111.25;7393400;19;20022;-54
2024/01/13 02:04:34;;;;;;;1.00;0.80;;;;;;;23.68;30.27;101109.72;7398502;19;20017;-54
2024/01/13 02:07:01;;;;;;;2.25;0.90;;;;;;;25.76;28.32;101107.25;7394371;19;20461;-59
2024/01/13 02:09:27;;;;;;;0.22;0.22;;;;;;;26.61;27.67;101097.75;7395479;19;20006;-59
2024/01/13 02:11:53;;;;;;;0.10;0.10;;;;;;;26.77;27.23;101085.13;7393328;19;20089;-59
2024/01/13 02:14:20;;;;;;;0.57;0.57;;;;;;;27.10;27.23;101076.97;7399693;19;20513;-59
2024/01/13 02:16:46;;;;;;;0.20;0.20;;;;;;;28.91;25.73;101083.31;7393700;19;20010;-59
2024/01/13 02:19:12;;;;;;;1.65;0.77;;;;;;;29.41;25.19;101073.66;7391964;19;20270;-59
2024/01/13 02:21:38;;;;;;;0.73;0.73;;;;;;;29.15;25.08;101080.59;7395225;19;20040;-59
2024/01/13 02:24:05;;;;;;;1.23;0.63;;;;;;;28.45;26.23;101083.28;7393456;19;20022;-59
2024/01/13 02:26:34;;;;;;;6.20;1.33;;;;;;;28.10;26.54;101074.81;7234024;19;3175751;-58
2024/01/13 02:29:00;;;;;;;2.25;0.93;;;;;;;27.75;26.54;101074.28;7395353;19;20239;-59
2024/01/13 02:31:26;;;;;;;0.10;0.10;;;;;;;27.55;26.87;101072.28;7392954;19;20841;-59
2024/01/13 02:33:53;;;;;;;0.85;0.50;;;;;;;27.60;26.45;101067.75;7396677;19;20006;-59
2024/01/13 02:36:19;;;;;;;0.25;0.25;;;;;;;27.39;27.04;101064.97;7392635;19;20343;-59
2024/01/13 02:38:45;;;;;;;14.52;0.55;;;;;;;25.39;28.50;101063.38;7396220;19;20045;-59
2024/01/13 02:41:11;;;;;;;0.47;0.47;;;;;;;26.42;27.94;101047.84;7396827;19;20014;-59
2024/01/13 02:43:38;;;;;;;0.45;0.40;;;;;;;26.05;27.96;101043.28;7395539;19;20022;-59
2024/01/13 02:46:05;;;;;;;0.30;0.30;;;;;;;26.29;27.93;101045.81;7397032;19;20159;-59
2024/01/13 02:48:38;;;;;;;0.60;0.60;;;;;;;26.28;27.66;101044.28;7397031;19;20090;-59
2024/01/13 02:51:07;;;;;;;0.47;0.20;;;;;;;26.37;28.17;101040.94;7396236;19;20038;-59
2024/01/13 02:53:33;;;;;;;0.55;0.52;;;;;;;26.41;27.88;101023.44;7394658;19;20038;-59
2024/01/13 02:55:59;;;;;;;0.55;0.55;;;;;;;24.84;28.91;101018.84;7393566;19;20062;-59
2024/01/13 02:58:26;;;;;;;0.20;0.20;;;;;;;23.97;30.25;101031.22;7395902;19;20011;-59
2024/01/13 03:00:52;;;;;;;11.48;0.63;;;;;;;23.52;30.46;101039.59;7397855;19;20022;-59
2024/01/13 03:03:18;;;;;;;0.45;0.30;;;;;;;23.13;31.02;101042.16;7396321;19;20045;-59
2024/01/13 03:05:44;;;;;;;1.65;1.05;;;;;;;23.89;30.22;101033.91;7396046;19;20465;-59
2024/01/13 03:08:10;;;;;;;2.58;0.63;;;;;;;22.99;31.26;101031.97;7394095;19;20022;-59
2024/01/13 03:10:37;;;;;;;0.50;0.50;;;;;;;22.63;32.23;101019.19;7396254;19;20078;-59
2024/01/13 03:13:03;;;;;;;3.63;0.82;;;;;;;24.36;29.72;101017.16;7397577;19;20006;-59
2024/01/13 03:15:29;;;;;;;0.30;0.20;;;;;;;22.60;31.65;101016.13;7396101;19;20015;-59
2024/01/13 03:17:55;;;;;;;0.90;0.90;;;;;;;21.44;33.72;101016.16;7395675;19;20037;-59
2024/01/13 03:20:22;;;;;;;0.15;0.15;;;;;;;20.12;35.00;101023.63;7391894;19;20011;-59
2024/01/13 03:22:48;;;;;;;0.38;0.38;;;;;;;23.50;31.36;101002.41;7394541;19;20358;-59
2024/01/13 03:25:14;;;;;;;1.95;0.90;;;;;;;21.20;33.61;101008.28;7397962;19;20010;-59
2024/01/13 03:27:40;;;;;;;4.15;0.98;;;;;;;25.29;29.78;100996.72;7395981;19;20344;-59
2024/01/13 03:30:07;;;;;;;3.10;0.80;;;;;;;26.18;28.50;100983.25;7395722;19;20349;-59
2024/01/13 03:32:33;;;;;;;0.10;0.10;;;;;;;26.04;28.61;100993.19;7393455;19;20034;-59
2024/01/13 03:34:59;;;;;;;0.22;0.22;;;;;;;26.34;28.69;100996.34;7396540;19;20018;-59
2024/01/13 03:37:25;;;;;;;0.40;0.40;;;;;;;26.38;28.50;100996.75;7394825;19;20019;-59
2024/01/13 03:39:52;;;;;;;0.65;0.65;;;;;;;26.53;28.17;100991.16;7393966;19;20044;-59
2024/01/13 03:42:18;;;;;;;0.25;0.25;;;;;;;26.70;28.19;100994.34;7393330;19;20482;-59
2024/01/13 03:44:44;;;;;;;0.95;0.22;;;;;;;26.98;27.62;100988.63;7397780;19;20018;-59
2024/01/13 03:47:10;;;;;;;0.65;0.65;;;;;;;25.78;28.66;100990.44;7392346;19;20010;-59
2024/01/13 03:49:36;;;;;;;0.35;0.35;;;;;;;25.44;28.83;100990.44;7392289;19;20485;-59
2024/01/13 03:52:02;;;;;;;2.72;1.00;;;;;;;22.44;32.06;100985.78;7393104;19;20074;-59
2024/01/13 03:54:29;;;;;;;0.32;0.20;;;;;;;21.98;32.58;100988.00;7397090;19;20505;-59
2024/01/13 03:56:55;;;;;;;0.30;0.30;;;;;;;23.68;30.92;100984.56;7390659;19;20041;-87
2024/01/13 03:59:21;;;;;;;0.10;0.10;;;;;;;24.26;30.48;100976.13;7391105;19;20085;-87
2024/01/13 04:01:47;;;;;;;0.10;0.10;;;;;;;26.37;28.28;100965.91;7390241;19;20010;-88
2024/01/13 04:04:13;;;;;;;0.43;0.43;;;;;;;25.12;29.66;100973.47;7392532;19;20855;-87
2024/01/13 04:06:40;;;;;;;1.15;0.20;;;;;;;26.43;28.90;100952.22;7389681;19;20010;-87
2024/01/13 04:09:07;;;;;;;0.20;0.20;;;;;;;27.55;27.73;100945.59;7390582;19;20479;-87
2024/01/13 04:11:34;;;;;;;0.38;0.38;;;;;;;27.92;26.90;100949.84;7390233;19;20026;-88
2024/01/13 04:14:00;;;;;;;0.20;0.20;;;;;;;27.91;27.04;100940.53;7391858;19;20022;-87
2024/01/13 04:16:26;;;;;;;0.10;0.10;;;;;;;26.26;28.09;100926.97;7390867;19;20409;-87
2024/01/13 04:18:52;;;;;;;0.50;0.50;;;;;;;25.92;28.54;100935.63;7390722;19;20081;-87
2024/01/13 04:21:18;;;;;;;0.73;0.30;;;;;;;25.07;29.13;100942.22;7389365;19;20014;-88
2024/01/13 04:23:44;;;;;;;0.15;0.15;;;;;;;25.09;29.20;100940.38;7391286;19;20368;-88
2024/01/13 04:26:11;;;;;;;0.40;0.40;;;;;;;24.89;29.67;100946.75;7391352;19;20039;-88
2024/01/13 04:28:37;;;;;;;0.32;0.32;;;;;;;24.76;29.58;100949.59;7390213;19;20031;-87
2024/01/13 04:31:04;;;;;;;0.10;0.10;;;;;;;25.03;29.60;100939.72;7389894;19;20656;-87
2024/01/13 04:33:30;;;;;;;0.13;0.13;;;;;;;25.97;28.56;100940.41;7391348;19;20296;-87
2024/01/13 04:35:56;;;;;;;0.20;0.20;;;;;;;25.74;28.88;100944.34;7389104;19;20025;-88
2024/01/13 04:38:23;;;;;;;0.20;0.20;;;;;;;24.80;29.56;100944.34;7387971;19;20014;-87
2024/01/13 04:40:49;;;;;;;0.50;0.50;;;;;;;25.03;29.53;100942.56;7389372;19;20372;-88
2024/01/13 04:43:15;;;;;;;0.10;0.10;;;;;;;25.45;29.37;100940.63;7387050;19;20031;-88
2024/01/13 04:45:41;;;;;;;0.20;0.10;;;;;;;26.46;28.64;100939.69;7389437;19;20078;-87
2024/01/13 04:48:07;;;;;;;0.20;0.20;;;;;;;27.77;27.29;100936.28;7388238;19;20018;-87
2024/01/13 04:50:33;;;;;;;0.63;0.40;;;;;;;27.93;26.96;100946.44;7388934;19;20014;-87
2024/01/13 04:53:00;;;;;;;0.10;0.10;;;;;;;26.22;28.74;100950.19;7387521;19;20010;-87
2024/01/13 04:55:26;;;;;;;0.22;0.22;;;;;;;26.03;29.03;100960.25;7392940;19;20022;-88
2024/01/13 04:57:52;;;;;;;0.50;0.50;;;;;;;26.57;28.50;100951.59;7385823;19;20031;-59
2024/01/13 05:00:18;;;;;;;0.20;0.20;;;;;;;25.15;29.61;100937.38;7390351;19;20015;-59
2024/01/13 05:02:44;;;;;;;0.20;0.20;;;;;;;23.90;30.91;100943.63;7392541;19;20022;-59
2024/01/13 05:05:10;;;;;;;0.20;0.20;;;;;;;21.67;33.46;100941.78;7394007;19;20014;-59
2024/01/13 05:07:38;;;;;;;0.38;0.38;;;;;;;26.69;28.49;100941.34;7391021;19;20015;-59
2024/01/13 05:10:06;;;;;;;0.10;0.10;;;;;;;27.21;27.77;100939.34;7391713;19;20469;-59
2024/01/13 05:12:32;;;;;;;0.10;0.10;;;;;;;24.46;30.23;100946.28;7391061;19;20021;-59
2024/01/13 05:14:58;;;;;;;0.10;0.10;;;;;;;24.69;30.13;100953.06;7394117;19;20018;-59
2024/01/13 05:17:24;;;;;;;0.32;0.32;;;;;;;24.83;30.30;100929.00;7390323;19;20494;-59
2024/01/13 05:19:51;;;;;;;0.10;0.10;;;;;;;24.19;31.12;100954.00;7393451;19;20022;-59
2024/01/13 05:22:17;;;;;;;0.10;0.10;;;;;;;26.17;29.62;100921.75;7398320;19;20015;-59
2024/01/13 05:24:43;;;;;;;0.20;0.20;;;;;;;25.38;29.65;100933.47;7401229;19;20027;-59
2024/01/13 05:27:09;;;;;;;0.28;0.10;;;;;;;25.98;29.13;100933.38;7399535;19;20043;-59
2024/01/13 05:29:35;;;;;;;0.10;0.10;;;;;;;25.53;29.88;100925.13;7397750;19;20506;-59
2024/01/13 05:32:02;;;;;;;0.20;0.20;;;;;;;24.31;30.86;100921.19;7397150;19;20011;-59
2024/01/13 05:34:28;;;;;;;0.10;0.10;;;;;;;24.56;30.55;100907.53;7401084;19;20022;-59
2024/01/13 05:36:54;;;;;;;0.20;0.13;;;;;;;24.78;30.50;100918.47;7398549;19;20011;-59
2024/01/13 05:39:20;;;;;;;0.30;0.10;;;;;;;24.68;30.60;100903.88;7396329;19;20006;-59
2024/01/13 05:41:47;;;;;;;0.40;0.20;;;;;;;24.31;30.96;100904.09;7398063;19;20022;-59
2024/01/13 05:44:13;;;;;;;0.95;0.45;;;;;;;25.42;30.08;100913.22;7400760;19;20015;-59
2024/01/13 05:46:40;;;;;;;0.20;0.20;;;;;;;25.56;29.86;100895.50;7399360;19;20011;-59
2024/01/13 05:49:07;;;;;;;0.30;0.20;;;;;;;24.58;30.81;100904.88;7396895;19;20362;-59
2024/01/13 05:51:35;;;;;;;0.43;0.25;;;;;;;24.95;30.40;100898.94;7397635;19;20489;-59
2024/01/13 05:54:01;;;;;;;0.10;0.00;;;;;;;24.97;30.62;100895.56;7398083;19;20014;-59
2024/01/13 05:56:27;;;;;;;0.57;0.47;;;;;;;24.84;30.65;100899.16;7398685;19;20022;-59
2024/01/13 05:58:53;;;;;;;0.10;0.10;;;;;;;24.56;31.16;100910.38;7396622;19;20073;-59
2024/01/13 06:01:20;;;;;;;8.05;0.50;;;;;;;25.16;30.61;100896.94;7398661;19;20010;-59
2024/01/13 06:03:46;;;;;;;0.10;0.10;;;;;;;25.37;30.10;100905.53;7399701;19;20455;-59
2024/01/13 06:06:12;;;;;;;0.30;0.30;;;;;;;25.36;30.26;100899.03;7397722;19;20019;-59
2024/01/13 06:08:38;;;;;;;0.25;0.25;;;;;;;25.33;30.50;100890.84;7399897;19;20011;-59
2024/01/13 06:11:04;;;;;;;1.45;0.30;;;;;;;25.41;30.06;100901.00;7396184;19;20010;-59
2024/01/13 06:13:31;;;;;;;0.47;0.22;;;;;;;25.46;30.53;100913.66;7397515;19;20031;-59
2024/01/13 06:15:57;;;;;;;0.57;0.52;;;;;;;25.54;30.45;100903.06;7396865;19;20078;-59
2024/01/13 06:18:23;;;;;;;0.30;0.20;;;;;;;25.51;30.31;100892.78;7398574;19;20006;-59
2024/01/13 06:20:50;;;;;;;0.10;0.10;;;;;;;25.15;30.39;100883.97;7399090;19;20014;-59
2024/01/13 06:23:16;;;;;;;0.60;0.25;;;;;;;25.47;29.82;100876.00;7395039;19;20017;-59
2024/01/13 06:25:42;;;;;;;0.10;0.10;;;;;;;25.42;30.34;100879.75;7397065;19;20018;-59
2024/01/13 06:28:09;;;;;;;0.63;0.30;;;;;;;25.16;30.05;100874.13;7397310;19;20070;-59
2024/01/13 06:30:35;;;;;;;0.30;0.20;;;;;;;24.81;30.50;100869.72;7396104;19;20002;-59
2024/01/13 06:33:02;;;;;;;0.30;0.30;;;;;;;25.05;30.31;100862.97;7397211;19;20086;-59
2024/01/13 06:35:28;;;;;;;0.17;0.17;;;;;;;24.99;30.16;100853.78;7397678;19;20018;-59
2024/01/13 06:37:54;;;;;;;0.60;0.60;;;;;;;25.09;29.78;100851.22;7396658;19;20018;-59
2024/01/13 06:40:21;;;;;;;0.57;0.22;;;;;;;25.08;29.75;100856.16;7394435;19;20335;-59
2024/01/13 06:42:47;;;;;;;0.45;0.45;;;;;;;24.94;30.26;100851.81;7397082;19;20032;-59
2024/01/13 06:45:13;;;;;;;0.40;0.30;;;;;;;25.17;30.22;100858.53;7395696;19;20010;-59
2024/01/13 06:47:40;;;;;;;0.52;0.15;;;;;;;25.23;30.08;100855.56;7396536;19;20019;-59
2024/01/13 06:50:06;;;;;;;0.20;0.20;;;;;;;25.34;29.74;100844.66;7396332;19;20014;-59
2024/01/13 06:52:32;;;;;;;0.10;0.10;;;;;;;26.72;28.65;100833.72;7394921;19;20018;-59
2024/01/13 06:54:58;;;;;;;0.30;0.30;;;;;;;25.98;29.44;100838.41;7399827;19;20014;-59
2024/01/13 06:57:25;;;;;;;0.10;0.10;;;;;;;25.46;30.02;100840.25;7396118;19;20454;-59
2024/01/13 06:59:51;;;;;;;1.02;0.45;;;;;;;25.32;29.78;100841.59;7392140;19;20489;-59
2024/01/13 07:02:17;;;;;;;0.57;0.50;;;;;;;25.36;29.97;100852.66;7397552;19;20021;-59
2024/01/13 07:04:45;;;;;;;1.65;0.60;;;;;;;25.49;30.27;100832.66;7396898;19;20015;-59
2024/01/13 07:07:11;;;;;;;0.30;0.25;;;;;;;25.52;29.96;100831.53;7400018;19;20326;-59
2024/01/13 07:09:39;;;;;;;0.38;0.38;;;;;;;25.51;29.78;100830.03;7398441;19;20015;-59
2024/01/13 07:12:07;;;;;;;0.40;0.40;;;;;;;25.17;30.37;100835.72;7399066;19;20014;-59
2024/01/13 07:14:34;;;;;;;0.77;0.60;;;;;;;25.10;30.06;100833.53;7396761;19;20022;-59
2024/01/13 07:17:00;;;;;;;0.60;0.60;;;;;;;25.24;29.93;100828.56;7396665;19;20101;-59
2024/01/13 07:19:27;;;;;;;1.30;0.60;;;;;;;25.12;30.56;100839.47;7394676;19;20105;-59
2024/01/13 07:21:54;;;;;;;0.10;0.10;;;;;;;24.96;30.79;100837.78;7394031;19;20050;-59
2024/01/13 07:24:20;;;;;;;0.20;0.20;;;;;;;24.89;30.84;100846.22;7395591;19;20073;-59
2024/01/13 07:26:46;;;;;;;0.10;0.10;;;;;;;25.01;30.71;100845.44;7396616;19;20077;-59
2024/01/13 07:29:12;;;;;;;0.52;0.30;;;;;;;25.08;30.30;100827.63;7397593;19;20058;-59
2024/01/13 07:31:39;;;;;;;0.25;0.15;;;;;;;24.86;30.76;100811.06;7399080;19;20032;-59
2024/01/13 07:34:06;;;;;;;0.30;0.30;;;;;;;24.82;30.45;100822.00;7396735;19;20011;-59
2024/01/13 07:36:32;;;;;;;0.63;0.40;;;;;;;24.54;31.25;100825.44;7397825;19;20022;-59
2024/01/13 07:39:01;;;;;;;0.25;0.25;;;;;;;24.96;30.46;100829.22;7397630;19;20015;-59
2024/01/13 07:41:28;;;;;;;0.50;0.50;;;;;;;24.27;31.44;100818.25;7396483;19;20025;-59
2024/01/13 07:43:56;;;;;;;0.20;0.20;;;;;;;24.16;31.25;100817.69;7397341;19;20047;-59
2024/01/13 07:46:24;;;;;;;0.57;0.57;;;;;;;24.82;30.67;100810.63;7397635;19;20538;-59
2024/01/13 07:48:52;;;;;;;1.27;0.52;;;;;;;24.95;30.58;100802.03;7396177;19;20022;-59
2024/01/13 07:51:19;;;;;;;0.20;0.20;;;;;;;25.41;30.01;100797.56;7396608;19;20017;-59
2024/01/13 07:53:48;;;;;;;0.57;0.20;;;;;;;25.37;29.98;100803.63;7397172;19;20029;-59
2024/01/13 07:56:16;;;;;;;0.10;0.10;;;;;;;24.21;31.14;100809.06;7397120;19;20009;-59
2024/01/13 07:58:46;;;;;;;0.30;0.30;;;;;;;23.96;31.04;100805.63;7395569;19;20011;-59
2024/01/13 08:01:12;;;;;;;3.03;1.17;;;;;;;23.91;31.32;100797.94;7396692;19;20457;-59
2024/01/13 08:03:38;;;;;;;1.30;0.40;;;;;;;24.10;31.51;100798.63;7398542;19;20015;-59
2024/01/13 08:06:04;;;;;;;0.43;0.43;;;;;;;23.27;32.18;100799.31;7396505;19;20010;-59
2024/01/13 08:08:32;;;;;;;1.67;0.40;;;;;;;23.61;32.05;100791.78;7398874;19;20006;-59
2024/01/13 08:10:58;;;;;;;0.20;0.20;;;;;;;23.59;31.82;100794.41;7397412;19;20355;-59
2024/01/13 08:13:24;;;;;;;0.68;0.35;;;;;;;22.65;33.06;100797.91;7395826;19;20019;-59
2024/01/13 08:15:50;;;;;;;2.20;0.30;;;;;;;23.24;32.37;100786.94;7397096;19;20073;-59
2024/01/13 08:18:17;;;;;;;0.45;0.45;;;;;;;23.26;32.16;100800.59;7396583;19;20020;-59
2024/01/13 08:20:45;;;;;;;0.50;0.50;;;;;;;23.34;32.50;100795.88;7392494;19;20031;-59
2024/01/13 08:23:12;;;;;;;0.75;0.75;;;;;;;22.94;32.72;100794.13;7393934;19;20380;-59
2024/01/13 08:25:39;;;;;;;1.20;0.57;;;;;;;22.93;33.07;100795.44;7398174;19;20463;-59
2024/01/13 08:28:06;;;;;;;2.95;0.45;;;;;;;23.15;32.90;100783.75;7392317;19;20347;-59
2024/01/13 08:30:32;;;;;;;2.65;0.75;;;;;;;23.38;32.59;100789.84;7391432;19;20086;-59
2024/01/13 08:32:59;;;;;;;0.93;0.68;;;;;;;24.25;31.52;100788.78;7391305;19;20018;-59
2024/01/13 08:35:25;;;;;;;1.50;0.35;;;;;;;24.57;31.27;100795.09;7395948;19;20442;-59
2024/01/13 08:37:51;;;;;;;0.63;0.50;;;;;;;24.60;31.33;100794.00;7394034;19;20010;-55
2024/01/13 08:40:18;;;;;;;1.70;0.95;;;;;;;24.84;31.49;100791.66;7391201;19;20506;-55
2024/01/13 08:42:47;;;;;;;3.10;0.75;;;;;;;24.93;31.44;100786.81;7392688;19;20037;-55
2024/01/13 08:45:13;;;;;;;5.60;2.08;;;;;;;24.53;31.69;100788.97;7389925;19;20031;-55
2024/01/13 08:47:39;;;;;;;2.55;1.33;;;;;;;24.54;31.70;100784.78;7396216;19;20014;-54
2024/01/13 08:50:07;;;;;;;3.67;1.48;;;;;;;24.39;32.29;100773.22;7392585;19;20327;-55
2024/01/13 08:52:33;;;;;;;9.75;0.98;;;;;;;24.42;31.88;100778.59;7392579;19;20029;-54
2024/01/13 08:54:59;;;;;;;5.78;1.63;;;;;;;24.65;31.98;100771.06;7391971;19;20070;-55
2024/01/13 08:57:25;;;;;;;2.00;0.50;;;;;;;25.14;31.44;100767.66;7392469;19;20098;-55
2024/01/13 08:59:51;;;;;;;1.67;0.90;;;;;;;24.98;31.16;100766.72;7395037;19;20071;-54
2024/01/13 09:02:18;;;;;;;2.72;1.02;;;;;;;25.36;31.08;100779.25;7395858;19;20015;-55
2024/01/13 09:04:44;;;;;;;0.55;0.52;;;;;;;25.03;31.35;100774.38;7396501;19;20015;-55
2024/01/13 09:07:11;;;;;;;0.75;0.75;;;;;;;24.62;31.50;100779.97;7393116;19;20017;-55
2024/01/13 09:09:37;;;;;;;0.82;0.40;;;;;;;24.82;31.27;100770.72;7394767;19;20021;-54
2024/01/13 09:12:03;;;;;;;0.68;0.35;;;;;;;24.94;31.41;100772.00;7391866;19;20019;-55
2024/01/13 09:14:30;;;;;;;0.77;0.77;;;;;;;25.11;31.37;100778.06;7392295;19;20022;-54
2024/01/13 09:16:56;;;;;;;0.47;0.47;;;;;;;25.29;31.56;100774.28;7391387;19;20022;-54
2024/01/13 09:19:22;;;;;;;0.25;0.20;;;;;;;25.23;31.61;100782.19;7391455;19;20027;-54
2024/01/13 09:21:48;;;;;;;0.68;0.52;;;;;;;25.37;31.19;100775.09;7396453;19;20018;-55
2024/01/13 09:24:16;;;;;;;13.20;0.80;;;;;;;25.38;31.42;100773.75;7392062;19;20015;-59
2024/01/13 09:26:44;;;;;;;0.98;0.68;;;;;;;25.79;30.91;100780.78;7391173;19;20007;-59
2024/01/13 09:29:11;;;;;;;0.52;0.22;;;;;;;25.70;31.39;100767.78;7391061;19;20122;-59
2024/01/13 09:31:38;;;;;;;4.35;1.08;;;;;;;25.73;31.51;100771.63;7392156;19;20010;-59
2024/01/13 09:34:07;;;;;;;0.75;0.50;;;;;;;25.78;31.35;100773.53;7392166;19;20010;-59
2024/01/13 09:36:33;;;;;;;0.20;0.20;;;;;;;25.72;31.64;100776.56;7391441;19;20332;-59
2024/01/13 09:38:59;;;;;;;1.65;0.65;;;;;;;25.56;31.53;100769.97;7389585;19;20157;-59
2024/01/13 09:41:25;;;;;;;0.32;0.32;;;;;;;25.82;31.11;100762.53;7390776;19;20034;-59
2024/01/13 09:44:01;;;;;;;0.43;0.20;;;;;;;25.20;31.75;100749.09;7391512;19;20011;-59
2024/01/13 09:46:29;;;;;;;0.35;0.15;;;;;;;25.78;31.33;100750.72;7390693;19;20011;-59
2024/01/13 09:48:56;;;;;;;3.50;0.60;;;;;;;25.05;32.02;100751.78;7388071;19;20006;-59
2024/01/13 09:51:23;;;;;;;0.52;0.40;;;;;;;24.74;31.99;100747.06;7386207;19;20014;-59
2024/01/13 09:53:57;;;;;;;0.68;0.20;;;;;;;25.06;31.72;100739.06;7388247;19;20006;-59
2024/01/13 09:56:32;;;;;;;2.33;0.50;;;;;;;24.43;32.44;100750.88;7388063;19;20017;-59
2024/01/13 09:58:58;;;;;;;0.47;0.47;;;;;;;25.38;31.80;100739.53;7387919;19;20014;-59
2024/01/13 10:01:26;;;;;;;2.30;1.00;;;;;;;25.19;31.54;100741.84;7388811;19;20010;-59
2024/01/13 10:03:53;;;;;;;3.25;0.93;;;;;;;25.77;31.42;100738.56;7389899;19;20018;-59
2024/01/13 10:06:20;;;;;;;0.25;0.22;;;;;;;25.53;31.35;100731.13;7396769;19;20084;-59
2024/01/13 10:08:46;;;;;;;3.60;0.40;;;;;;;25.42;31.15;100739.22;7400922;19;20033;-59
2024/01/13 10:11:12;;;;;;;0.32;0.17;;;;;;;25.20;31.39;100734.84;7399012;19;20017;-58
2024/01/13 10:13:38;;;;;;;0.70;0.70;;;;;;;25.37;31.13;100740.88;7397734;19;20018;-58
2024/01/13 10:16:04;;;;;;;2.63;1.13;;;;;;;25.54;31.10;100737.59;7397108;19;20017;-58
2024/01/13 10:18:31;;;;;;;2.70;0.47;;;;;;;25.30;31.33;100730.16;7397663;19;20010;-58
2024/01/13 10:20:57;;;;;;;0.65;0.65;;;;;;;25.46;31.34;100731.84;7395361;19;20359;-54
2024/01/13 10:23:24;;;;;;;0.35;0.35;;;;;;;25.25;31.65;100725.34;7396643;19;20027;-53
2024/01/13 10:25:50;;;;;;;0.55;0.55;;;;;;;25.45;31.27;100723.84;7396651;19;20011;-53
2024/01/13 10:28:16;;;;;;;3.50;0.73;;;;;;;25.19;32.07;100730.44;7397555;19;20044;-53
2024/01/13 10:30:42;;;;;;;0.77;0.68;;;;;;;25.76;31.36;100737.00;7398256;19;20063;-53
2024/01/13 10:33:10;;;;;;;4.03;1.13;;;;;;;25.43;32.22;100743.59;7398846;19;20022;-54
2024/01/13 10:35:36;;;;;;;1.00;0.40;;;;;;;25.89;31.54;100738.97;7397471;19;20010;-54
2024/01/13 10:38:03;;;;;;;0.45;0.45;;;;;;;25.88;31.53;100731.75;7396478;19;20033;-54
2024/01/13 10:40:29;;;;;;;0.80;0.68;;;;;;;25.74;31.88;100736.03;7394994;19;20070;-54
2024/01/13 10:42:57;;;;;;;0.50;0.50;;;;;;;25.81;31.59;100738.19;7399246;19;20017;-54
2024/01/13 10:45:25;;;;;;;1.33;0.52;;;;;;;25.72;32.02;100739.47;7399648;19;20042;-54
2024/01/13 10:47:53;;;;;;;0.30;0.30;;;;;;;25.70;32.02;100738.47;7396769;19;20037;-54
2024/01/13 10:50:20;;;;;;;1.77;0.22;;;;;;;25.73;31.87;100732.41;7397520;19;20015;-54
2024/01/13 10:53:16;;;;;;;0.30;0.25;;;;;;;25.58;31.79;100732.31;7398241;19;20025;-54
2024/01/13 10:55:43;;;;;;;0.20;0.20;;;;;;;25.50;31.69;100732.25;7397645;19;20074;-54
2024/01/13 10:58:10;;;;;;;0.10;0.10;;;;;;;25.37;31.59;100728.69;7396193;19;20007;-54
2024/01/13 11:00:37;;;;;;;1.48;0.40;;;;;;;25.42;32.00;100730.66;7394842;19;20007;-54
2024/01/13 11:03:04;;;;;;;0.60;0.30;;;;;;;25.36;32.35;100727.91;7395773;19;20080;-54
2024/01/13 11:05:33;;;;;;;1.15;0.68;;;;;;;25.67;32.30;100716.75;7397299;19;20477;-54
2024/01/13 11:08:03;;;;;;;2.83;0.68;;;;;;;25.92;31.90;100709.31;7396431;19;20015;-54
2024/01/13 11:10:37;;;;;;;3.80;0.80;;;;;;;25.86;32.18;100711.59;7396614;19;20014;-54
2024/01/13 11:13:18;;;;;;;0.82;0.80;;;;;;;25.58;32.47;100704.53;7395910;19;20027;-54
2024/01/13 11:15:49;;;;;;;0.52;0.52;;;;;;;25.10;33.03;100705.25;7394818;19;20021;-53
2024/01/13 11:18:19;;;;;;;2.28;0.50;;;;;;;25.41;32.51;100707.06;7395200;19;20018;-54
2024/01/13 11:21:03;;;;;;;0.80;0.63;;;;;;;26.05;32.01;100700.66;7394551;19;20017;-53
2024/01/13 11:23:51;;;;;;;2.22;1.23;;;;;;;25.21;32.73;100692.84;7396544;19;20011;-53